Vremea mâine în Băile Govora - Romania

Vrei sa afli care e starea vremii acum in Valcea - Romania? Dorim sa iti furnizam starea vremii pentru Valcea - Romania. Starea vremii Valcea - Romania pentru astazi.

Vremea mâine în Băile Govora

Temperatura minimă:
11.8 °C

Temperatura maximă:
14.6 °C

Mâine va fi: Averse de ploaie
Precipitații: 90 %
Umiditate: 96%
Viteza maximă vânt mâine:
7.6 km/h

Evoluția vremii in Băile Govora pe ore mâine

Ora: 10:00
Temperatura: °C
Sansa de precipitatii: %
Ora Descriere Temp Se simte Precipitatii Umiditate Vant
00:00Patchy rain nearby12.2°12.2°100%84%S 2.5 KM/H
01:00Burniță ușoară12.3°11.8°100%93%SW 7.6 KM/H
02:00Ploi usoare13.8°14°100%94%W 5 KM/H
03:00Ploaie ușoară13.5°13.9°100%96%NW 4.3 KM/H
04:00Ploaie ușoară13°13.2°100%97%NNW 5 KM/H
05:00Burniță ușoară12.7°12.8°100%97%N 5 KM/H
06:00Burniță ușoară12.4°11.9°100%96%N 7.2 KM/H
07:00Burniță ușoară12.4°12.5°100%96%NNE 5 KM/H
08:00Ploi usoare13.7°14.1°100%94%NE 4.3 KM/H
09:00Ploaie ușoară14.6°15.3°100%95%NE 3.6 KM/H
10:00Ploaie ușoară14.4°14.4°100%96%NNE 2.9 KM/H
11:00Ploaie ușoară14.3°14.3°100%97%NNE 1.8 KM/H
12:00Ploaie ușoară14.3°14.3°100%97%N 1.8 KM/H
13:00Ploaie ușoară14.4°14.4°100%97%N 2.5 KM/H
14:00Ploi moderate14.4°14.5°100%98%N 2.5 KM/H
15:00Ploi moderate14.4°14.4°100%98%NNE 1.4 KM/H
16:00Ploaie ușoară14.4°14.4°100%98%NNE 1.4 KM/H
17:00Ploaie ușoară14.3°14.3°100%98%N 2.9 KM/H
18:00Ploaie ușoară14.2°15°100%98%N 3.2 KM/H
19:00Ploaie ușoară14°14.8°100%98%N 3.2 KM/H
20:00Ploaie ușoară13.6°14.2°100%98%N 3.6 KM/H
21:00Ploi usoare13°13.3°100%98%N 4.7 KM/H
22:00Ceata12.4°12.5°100%97%N 4.7 KM/H
23:00Ceata11.8°11.8°72%96%N 5 KM/H




tutorials